sensor_id;sensor_type;location;lat;lon;timestamp;pressure;altitude;pressure_sealevel;temperature;humidity
33265;BME280;31404;53.974;-1.086;2023-06-14T00:00:41;101941.18;;;16.17;56.39
33265;BME280;31404;53.974;-1.086;2023-06-14T00:05:41;101944.70;;;17.46;54.75
33265;BME280;31404;53.974;-1.086;2023-06-14T00:10:42;101943.59;;;17.41;54.89
33265;BME280;31404;53.974;-1.086;2023-06-14T00:15:41;101948.19;;;17.64;54.67
33265;BME280;31404;53.974;-1.086;2023-06-14T00:20:43;101950.14;;;17.35;55.10
33265;BME280;31404;53.974;-1.086;2023-06-14T00:25:40;101949.56;;;18.14;53.90
33265;BME280;31404;53.974;-1.086;2023-06-14T00:30:42;101950.92;;;19.15;52.21
33265;BME280;31404;53.974;-1.086;2023-06-14T00:35:44;101952.31;;;19.03;52.73
33265;BME280;31404;53.974;-1.086;2023-06-14T00:40:41;101952.22;;;19.00;52.27
33265;BME280;31404;53.974;-1.086;2023-06-14T00:45:41;101951.12;;;19.19;52.40
33265;BME280;31404;53.974;-1.086;2023-06-14T00:50:41;101959.46;;;18.92;53.26
33265;BME280;31404;53.974;-1.086;2023-06-14T00:55:40;101960.95;;;18.71;53.62
33265;BME280;31404;53.974;-1.086;2023-06-14T01:00:40;101959.64;;;18.97;53.83
33265;BME280;31404;53.974;-1.086;2023-06-14T01:05:41;101959.56;;;19.19;53.87
33265;BME280;31404;53.974;-1.086;2023-06-14T01:15:43;101959.91;;;18.68;55.50
33265;BME280;31404;53.974;-1.086;2023-06-14T01:20:40;101958.90;;;18.54;56.33
33265;BME280;31404;53.974;-1.086;2023-06-14T01:25:41;101958.40;;;18.41;56.82
33265;BME280;31404;53.974;-1.086;2023-06-14T01:30:43;101954.26;;;18.00;57.45
33265;BME280;31404;53.974;-1.086;2023-06-14T01:35:41;101954.62;;;18.04;57.63
33265;BME280;31404;53.974;-1.086;2023-06-14T01:40:41;101957.28;;;17.99;58.61
33265;BME280;31404;53.974;-1.086;2023-06-14T01:45:41;101951.40;;;18.01;58.22
33265;BME280;31404;53.974;-1.086;2023-06-14T01:50:41;101952.81;;;17.76;58.81
33265;BME280;31404;53.974;-1.086;2023-06-14T01:55:40;101952.92;;;17.29;60.96
33265;BME280;31404;53.974;-1.086;2023-06-14T02:00:42;101962.70;;;16.32;63.09
33265;BME280;31404;53.974;-1.086;2023-06-14T02:05:40;101954.23;;;16.71;62.98
33265;BME280;31404;53.974;-1.086;2023-06-14T02:10:40;101952.37;;;17.22;61.97
33265;BME280;31404;53.974;-1.086;2023-06-14T02:15:41;101952.38;;;16.50;63.22
33265;BME280;31404;53.974;-1.086;2023-06-14T02:20:42;101942.38;;;16.93;62.51
33265;BME280;31404;53.974;-1.086;2023-06-14T02:25:40;101946.86;;;16.32;62.80
33265;BME280;31404;53.974;-1.086;2023-06-14T02:30:40;101945.74;;;16.91;61.90
33265;BME280;31404;53.974;-1.086;2023-06-14T02:35:40;101935.93;;;17.10;60.90
33265;BME280;31404;53.974;-1.086;2023-06-14T02:40:41;101936.23;;;16.38;63.64
33265;BME280;31404;53.974;-1.086;2023-06-14T02:45:41;101932.38;;;16.46;63.23
33265;BME280;31404;53.974;-1.086;2023-06-14T02:50:42;101938.98;;;16.37;62.40
33265;BME280;31404;53.974;-1.086;2023-06-14T02:55:40;101938.44;;;15.92;62.26
33265;BME280;31404;53.974;-1.086;2023-06-14T03:00:42;101938.38;;;16.39;62.90
33265;BME280;31404;53.974;-1.086;2023-06-14T03:05:43;101943.68;;;14.85;67.21
33265;BME280;31404;53.974;-1.086;2023-06-14T03:10:41;101945.49;;;13.74;69.24
33265;BME280;31404;53.974;-1.086;2023-06-14T03:15:42;101951.60;;;12.74;72.80
33265;BME280;31404;53.974;-1.086;2023-06-14T03:20:41;101951.76;;;13.66;71.76
33265;BME280;31404;53.974;-1.086;2023-06-14T03:25:41;101948.01;;;14.75;66.62
33265;BME280;31404;53.974;-1.086;2023-06-14T03:30:41;101943.07;;;14.10;68.09
33265;BME280;31404;53.974;-1.086;2023-06-14T03:35:40;101944.89;;;13.81;69.72
33265;BME280;31404;53.974;-1.086;2023-06-14T03:40:41;101945.10;;;13.50;69.80
33265;BME280;31404;53.974;-1.086;2023-06-14T03:45:41;101941.37;;;14.13;69.52
33265;BME280;31404;53.974;-1.086;2023-06-14T03:50:40;101945.13;;;15.10;65.76
33265;BME280;31404;53.974;-1.086;2023-06-14T03:55:41;101949.31;;;15.45;63.83
33265;BME280;31404;53.974;-1.086;2023-06-14T04:00:40;101948.33;;;15.14;64.72
33265;BME280;31404;53.974;-1.086;2023-06-14T04:05:42;101947.61;;;13.57;67.90
33265;BME280;31404;53.974;-1.086;2023-06-14T04:10:41;101942.53;;;14.51;65.57
33265;BME280;31404;53.974;-1.086;2023-06-14T04:15:42;101945.32;;;14.45;64.67
33265;BME280;31404;53.974;-1.086;2023-06-14T04:20:41;101950.51;;;13.51;66.14
33265;BME280;31404;53.974;-1.086;2023-06-14T04:25:41;101948.01;;;14.84;64.71
33265;BME280;31404;53.974;-1.086;2023-06-14T04:30:42;101950.05;;;13.20;67.05
33265;BME280;31404;53.974;-1.086;2023-06-14T04:35:42;101951.88;;;12.39;70.11
33265;BME280;31404;53.974;-1.086;2023-06-14T04:40:41;101951.61;;;13.41;66.34
33265;BME280;31404;53.974;-1.086;2023-06-14T04:45:41;101952.66;;;12.41;68.90
33265;BME280;31404;53.974;-1.086;2023-06-14T04:50:40;101954.76;;;11.86;70.66
33265;BME280;31404;53.974;-1.086;2023-06-14T04:55:41;101953.06;;;13.02;67.93
33265;BME280;31404;53.974;-1.086;2023-06-14T05:00:42;101951.72;;;14.01;65.15
33265;BME280;31404;53.974;-1.086;2023-06-14T05:05:41;101952.41;;;14.54;64.41
33265;BME280;31404;53.974;-1.086;2023-06-14T05:10:40;101960.42;;;14.69;63.67
33265;BME280;31404;53.974;-1.086;2023-06-14T05:15:41;101964.61;;;14.16;65.35
33265;BME280;31404;53.974;-1.086;2023-06-14T05:20:41;101968.22;;;13.24;67.60
33265;BME280;31404;53.974;-1.086;2023-06-14T05:25:43;101968.28;;;14.52;65.39
33265;BME280;31404;53.974;-1.086;2023-06-14T05:30:42;101973.00;;;15.15;64.29
33265;BME280;31404;53.974;-1.086;2023-06-14T05:35:41;101981.28;;;13.13;70.37
33265;BME280;31404;53.974;-1.086;2023-06-14T05:40:40;101978.12;;;15.89;63.15
33265;BME280;31404;53.974;-1.086;2023-06-14T05:45:42;101970.87;;;15.99;63.82
33265;BME280;31404;53.974;-1.086;2023-06-14T05:50:41;101974.07;;;15.13;66.59
33265;BME280;31404;53.974;-1.086;2023-06-14T05:56:19;101976.34;;;17.38;62.55
33265;BME280;31404;53.974;-1.086;2023-06-14T06:00:41;101975.44;;;16.76;62.50
33265;BME280;31404;53.974;-1.086;2023-06-14T06:05:42;101980.18;;;15.10;68.36
33265;BME280;31404;53.974;-1.086;2023-06-14T06:10:42;101982.79;;;15.66;67.71
33265;BME280;31404;53.974;-1.086;2023-06-14T06:15:42;101982.71;;;15.02;70.04
33265;BME280;31404;53.974;-1.086;2023-06-14T06:20:41;101985.54;;;15.44;69.42
33265;BME280;31404;53.974;-1.086;2023-06-14T06:25:42;101983.06;;;15.58;68.89
33265;BME280;31404;53.974;-1.086;2023-06-14T06:30:42;101985.87;;;15.86;68.81
33265;BME280;31404;53.974;-1.086;2023-06-14T06:35:41;101983.97;;;14.85;72.15
33265;BME280;31404;53.974;-1.086;2023-06-14T06:40:41;101986.11;;;15.62;70.79
33265;BME280;31404;53.974;-1.086;2023-06-14T06:45:42;101994.66;;;13.76;75.69
33265;BME280;31404;53.974;-1.086;2023-06-14T06:50:42;101996.06;;;14.17;76.25
33265;BME280;31404;53.974;-1.086;2023-06-14T06:55:45;101994.99;;;15.99;69.49
33265;BME280;31404;53.974;-1.086;2023-06-14T07:00:41;101989.40;;;15.18;70.27
33265;BME280;31404;53.974;-1.086;2023-06-14T07:05:42;101983.49;;;15.54;70.60
33265;BME280;31404;53.974;-1.086;2023-06-14T07:10:41;101985.80;;;15.48;72.69
33265;BME280;31404;53.974;-1.086;2023-06-14T07:15:41;101988.62;;;16.46;68.54
33265;BME280;31404;53.974;-1.086;2023-06-14T07:20:43;101984.56;;;17.20;65.52
33265;BME280;31404;53.974;-1.086;2023-06-14T07:25:43;101985.55;;;16.75;67.09
33265;BME280;31404;53.974;-1.086;2023-06-14T07:30:41;101985.52;;;16.97;65.69
33265;BME280;31404;53.974;-1.086;2023-06-14T07:35:42;101986.54;;;18.07;64.30
33265;BME280;31404;53.974;-1.086;2023-06-14T07:40:41;101987.06;;;16.68;66.24
33265;BME280;31404;53.974;-1.086;2023-06-14T07:45:47;101993.79;;;16.33;68.13
33265;BME280;31404;53.974;-1.086;2023-06-14T07:50:41;101998.88;;;16.41;68.14
33265;BME280;31404;53.974;-1.086;2023-06-14T07:55:41;102003.77;;;16.36;67.93
33265;BME280;31404;53.974;-1.086;2023-06-14T08:00:44;102001.13;;;14.78;70.95
33265;BME280;31404;53.974;-1.086;2023-06-14T08:05:41;102002.87;;;16.02;67.15
33265;BME280;31404;53.974;-1.086;2023-06-14T08:10:42;102001.35;;;17.29;64.96
33265;BME280;31404;53.974;-1.086;2023-06-14T08:15:42;102008.01;;;17.77;63.65
33265;BME280;31404;53.974;-1.086;2023-06-14T08:20:41;101998.16;;;16.83;65.86
33265;BME280;31404;53.974;-1.086;2023-06-14T08:25:41;101994.82;;;16.78;64.14
33265;BME280;31404;53.974;-1.086;2023-06-14T08:30:42;101993.47;;;16.00;65.17
33265;BME280;31404;53.974;-1.086;2023-06-14T08:35:42;101990.99;;;16.36;63.71
33265;BME280;31404;53.974;-1.086;2023-06-14T08:40:42;101987.00;;;17.02;59.27
33265;BME280;31404;53.974;-1.086;2023-06-14T08:45:41;101992.27;;;15.29;59.93
33265;BME280;31404;53.974;-1.086;2023-06-14T08:50:43;101980.34;;;16.83;57.25
33265;BME280;31404;53.974;-1.086;2023-06-14T08:55:41;101973.89;;;17.18;56.55
33265;BME280;31404;53.974;-1.086;2023-06-14T09:00:41;101986.11;;;15.97;56.55
33265;BME280;31404;53.974;-1.086;2023-06-14T09:05:41;101991.56;;;16.12;56.61
33265;BME280;31404;53.974;-1.086;2023-06-14T09:10:41;101971.88;;;17.00;56.40
33265;BME280;31404;53.974;-1.086;2023-06-14T09:15:41;101980.98;;;16.27;56.39
33265;BME280;31404;53.974;-1.086;2023-06-14T09:20:41;101977.31;;;15.86;57.50
33265;BME280;31404;53.974;-1.086;2023-06-14T09:25:45;101978.02;;;16.48;56.35
33265;BME280;31404;53.974;-1.086;2023-06-14T09:30:41;101981.92;;;15.78;56.84
33265;BME280;31404;53.974;-1.086;2023-06-14T09:35:44;101989.79;;;16.46;54.92
33265;BME280;31404;53.974;-1.086;2023-06-14T09:40:43;101990.63;;;16.23;57.55
33265;BME280;31404;53.974;-1.086;2023-06-14T09:45:46;101987.11;;;17.33;55.70
33265;BME280;31404;53.974;-1.086;2023-06-14T09:50:41;101990.61;;;17.21;55.86
33265;BME280;31404;53.974;-1.086;2023-06-14T09:55:42;101997.98;;;16.65;55.96
33265;BME280;31404;53.974;-1.086;2023-06-14T10:00:41;101991.99;;;16.93;55.49
33265;BME280;31404;53.974;-1.086;2023-06-14T10:05:43;101999.38;;;15.83;56.85
33265;BME280;31404;53.974;-1.086;2023-06-14T10:11:43;101987.67;;;19.06;52.94
33265;BME280;31404;53.974;-1.086;2023-06-14T10:25:42;101994.32;;;17.84;54.25
33265;BME280;31404;53.974;-1.086;2023-06-14T10:35:41;102013.59;;;16.71;56.74
33265;BME280;31404;53.974;-1.086;2023-06-14T10:40:42;102007.67;;;17.15;54.75
33265;BME280;31404;53.974;-1.086;2023-06-14T10:50:42;102010.33;;;16.09;55.49
33265;BME280;31404;53.974;-1.086;2023-06-14T10:55:42;101995.87;;;16.95;54.85
33265;BME280;31404;53.974;-1.086;2023-06-14T11:10:43;101994.59;;;17.40;54.68
33265;BME280;31404;53.974;-1.086;2023-06-14T11:15:45;101993.29;;;17.68;54.46
33265;BME280;31404;53.974;-1.086;2023-06-14T11:20:41;101989.06;;;16.61;55.16
33265;BME280;31404;53.974;-1.086;2023-06-14T11:25:42;101981.31;;;17.98;54.22
33265;BME280;31404;53.974;-1.086;2023-06-14T11:30:40;101975.65;;;17.76;53.22
33265;BME280;31404;53.974;-1.086;2023-06-14T11:35:42;101979.83;;;18.18;53.24
33265;BME280;31404;53.974;-1.086;2023-06-14T11:40:42;101984.36;;;18.30;52.14
33265;BME280;31404;53.974;-1.086;2023-06-14T11:45:42;101983.43;;;18.40;52.26
33265;BME280;31404;53.974;-1.086;2023-06-14T11:50:41;101978.64;;;18.33;52.36
33265;BME280;31404;53.974;-1.086;2023-06-14T11:55:44;101983.82;;;18.20;52.65
33265;BME280;31404;53.974;-1.086;2023-06-14T12:00:41;101990.14;;;17.89;52.96
33265;BME280;31404;53.974;-1.086;2023-06-14T12:05:42;101986.52;;;17.47;53.41
33265;BME280;31404;53.974;-1.086;2023-06-14T12:10:42;101985.71;;;17.91;51.70
33265;BME280;31404;53.974;-1.086;2023-06-14T12:15:42;101979.31;;;17.15;52.44
33265;BME280;31404;53.974;-1.086;2023-06-14T12:20:42;101982.74;;;17.89;51.52
33265;BME280;31404;53.974;-1.086;2023-06-14T12:30:41;101994.41;;;17.65;51.67
33265;BME280;31404;53.974;-1.086;2023-06-14T12:35:41;101987.97;;;19.83;48.61
33265;BME280;31404;53.974;-1.086;2023-06-14T12:40:41;101991.69;;;18.42;49.58
33265;BME280;31404;53.974;-1.086;2023-06-14T12:45:41;101986.83;;;18.48;50.14
33265;BME280;31404;53.974;-1.086;2023-06-14T12:50:42;101988.28;;;18.55;49.77
33265;BME280;31404;53.974;-1.086;2023-06-14T12:55:41;101990.60;;;19.86;48.28
33265;BME280;31404;53.974;-1.086;2023-06-14T13:00:42;101995.52;;;18.82;49.01
33265;BME280;31404;53.974;-1.086;2023-06-14T13:05:42;101987.13;;;18.72;50.01
33265;BME280;31404;53.974;-1.086;2023-06-14T13:10:41;101985.68;;;19.29;49.46
33265;BME280;31404;53.974;-1.086;2023-06-14T13:15:43;101986.44;;;17.80;50.60
33265;BME280;31404;53.974;-1.086;2023-06-14T13:20:41;101988.44;;;19.93;48.78
33265;BME280;31404;53.974;-1.086;2023-06-14T13:25:42;101987.28;;;18.58;49.40
33265;BME280;31404;53.974;-1.086;2023-06-14T13:30:42;101988.68;;;17.79;49.97
33265;BME280;31404;53.974;-1.086;2023-06-14T13:35:43;101989.35;;;17.10;50.77
33265;BME280;31404;53.974;-1.086;2023-06-14T13:40:39;101988.64;;;17.74;49.95
33265;BME280;31404;53.974;-1.086;2023-06-14T13:45:41;101995.29;;;17.65;50.10
33265;BME280;31404;53.974;-1.086;2023-06-14T13:50:42;101994.71;;;17.77;49.88
33265;BME280;31404;53.974;-1.086;2023-06-14T13:55:41;101997.98;;;17.55;50.45
33265;BME280;31404;53.974;-1.086;2023-06-14T14:05:42;101991.65;;;17.51;50.34
33265;BME280;31404;53.974;-1.086;2023-06-14T14:10:42;101989.16;;;17.42;50.45
33265;BME280;31404;53.974;-1.086;2023-06-14T14:15:42;101988.48;;;18.14;49.82
33265;BME280;31404;53.974;-1.086;2023-06-14T14:20:41;101985.72;;;18.29;48.89
33265;BME280;31404;53.974;-1.086;2023-06-14T14:25:41;101993.02;;;17.79;50.24
33265;BME280;31404;53.974;-1.086;2023-06-14T14:30:42;101982.54;;;17.62;50.94
33265;BME280;31404;53.974;-1.086;2023-06-14T14:35:43;101970.37;;;17.16;51.96
33265;BME280;31404;53.974;-1.086;2023-06-14T14:40:42;101974.41;;;17.08;52.01
33265;BME280;31404;53.974;-1.086;2023-06-14T14:45:41;101978.31;;;17.31;51.87
33265;BME280;31404;53.974;-1.086;2023-06-14T14:50:42;101987.26;;;17.77;51.60
33265;BME280;31404;53.974;-1.086;2023-06-14T14:55:42;101986.22;;;18.60;51.39
33265;BME280;31404;53.974;-1.086;2023-06-14T15:00:41;101985.00;;;18.04;51.34
33265;BME280;31404;53.974;-1.086;2023-06-14T15:05:47;101983.47;;;17.23;52.49
33265;BME280;31404;53.974;-1.086;2023-06-14T15:10:41;101989.67;;;17.04;52.94
33265;BME280;31404;53.974;-1.086;2023-06-14T15:15:41;101987.17;;;17.79;52.03
33265;BME280;31404;53.974;-1.086;2023-06-14T15:20:42;101988.39;;;17.24;51.91
33265;BME280;31404;53.974;-1.086;2023-06-14T15:25:40;101985.52;;;17.36;53.55
33265;BME280;31404;53.974;-1.086;2023-06-14T15:30:43;101988.94;;;17.37;52.98
33265;BME280;31404;53.974;-1.086;2023-06-14T15:35:42;101991.83;;;16.87;54.08
33265;BME280;31404;53.974;-1.086;2023-06-14T15:40:45;101997.12;;;17.12;53.70
33265;BME280;31404;53.974;-1.086;2023-06-14T15:45:46;101984.72;;;18.29;53.22
33265;BME280;31404;53.974;-1.086;2023-06-14T15:50:42;101987.48;;;17.33;53.18
33265;BME280;31404;53.974;-1.086;2023-06-14T15:55:42;101986.33;;;18.22;52.11
33265;BME280;31404;53.974;-1.086;2023-06-14T16:00:42;101989.85;;;17.47;53.27
33265;BME280;31404;53.974;-1.086;2023-06-14T16:05:43;101988.21;;;16.64;54.80
33265;BME280;31404;53.974;-1.086;2023-06-14T16:10:42;101990.76;;;17.57;53.75
33265;BME280;31404;53.974;-1.086;2023-06-14T16:15:41;101989.71;;;17.48;53.89
33265;BME280;31404;53.974;-1.086;2023-06-14T16:20:42;101994.24;;;17.34;54.64
33265;BME280;31404;53.974;-1.086;2023-06-14T16:25:42;102002.02;;;16.20;56.09
33265;BME280;31404;53.974;-1.086;2023-06-14T16:30:42;101999.06;;;16.58;55.84
33265;BME280;31404;53.974;-1.086;2023-06-14T16:35:42;101999.09;;;16.24;54.63
33265;BME280;31404;53.974;-1.086;2023-06-14T16:40:42;101999.14;;;16.46;55.83
33265;BME280;31404;53.974;-1.086;2023-06-14T16:45:42;101994.80;;;17.40;55.11
33265;BME280;31404;53.974;-1.086;2023-06-14T16:50:41;101993.52;;;16.91;55.54
33265;BME280;31404;53.974;-1.086;2023-06-14T16:55:46;101991.42;;;17.05;55.83
33265;BME280;31404;53.974;-1.086;2023-06-14T17:00:41;101997.82;;;17.69;55.19
33265;BME280;31404;53.974;-1.086;2023-06-14T17:10:42;102001.54;;;16.88;57.08
33265;BME280;31404;53.974;-1.086;2023-06-14T17:15:42;102001.08;;;16.90;58.99
33265;BME280;31404;53.974;-1.086;2023-06-14T17:20:43;102006.11;;;16.42;57.71
33265;BME280;31404;53.974;-1.086;2023-06-14T17:25:41;101996.67;;;17.10;57.22
33265;BME280;31404;53.974;-1.086;2023-06-14T17:30:41;102001.01;;;17.13;57.71
33265;BME280;31404;53.974;-1.086;2023-06-14T17:35:42;102002.34;;;17.71;55.23
33265;BME280;31404;53.974;-1.086;2023-06-14T17:40:43;102002.27;;;17.08;56.83
33265;BME280;31404;53.974;-1.086;2023-06-14T17:45:41;102001.25;;;16.95;56.61
33265;BME280;31404;53.974;-1.086;2023-06-14T17:50:42;102002.06;;;17.36;56.03
33265;BME280;31404;53.974;-1.086;2023-06-14T17:55:41;102001.84;;;17.91;56.47
33265;BME280;31404;53.974;-1.086;2023-06-14T18:00:42;102010.26;;;15.73;60.88
33265;BME280;31404;53.974;-1.086;2023-06-14T18:05:42;102009.89;;;16.63;60.48
33265;BME280;31404;53.974;-1.086;2023-06-14T18:10:43;102016.63;;;15.84;62.94
33265;BME280;31404;53.974;-1.086;2023-06-14T18:15:47;102019.96;;;16.84;62.07
33265;BME280;31404;53.974;-1.086;2023-06-14T18:20:44;102022.73;;;16.54;61.86
33265;BME280;31404;53.974;-1.086;2023-06-14T18:25:41;102024.59;;;15.62;64.03
33265;BME280;31404;53.974;-1.086;2023-06-14T18:30:42;102022.06;;;15.96;63.51
33265;BME280;31404;53.974;-1.086;2023-06-14T18:35:42;102015.88;;;17.25;61.97
33265;BME280;31404;53.974;-1.086;2023-06-14T18:40:42;102022.49;;;17.74;60.41
33265;BME280;31404;53.974;-1.086;2023-06-14T18:45:42;102038.16;;;16.21;64.36
33265;BME280;31404;53.974;-1.086;2023-06-14T18:50:41;102035.06;;;17.28;61.05
33265;BME280;31404;53.974;-1.086;2023-06-14T18:55:42;102042.24;;;18.22;60.01
33265;BME280;31404;53.974;-1.086;2023-06-14T19:00:42;102045.43;;;18.82;58.61
33265;BME280;31404;53.974;-1.086;2023-06-14T19:05:42;102050.53;;;17.11;64.82
33265;BME280;31404;53.974;-1.086;2023-06-14T19:10:48;102059.65;;;15.67;68.56
33265;BME280;31404;53.974;-1.086;2023-06-14T19:15:42;102058.26;;;17.38;64.97
33265;BME280;31404;53.974;-1.086;2023-06-14T19:20:39;102057.50;;;17.21;65.56
33265;BME280;31404;53.974;-1.086;2023-06-14T19:25:42;102061.16;;;17.85;63.47
33265;BME280;31404;53.974;-1.086;2023-06-14T19:30:41;102067.08;;;17.69;63.97
33265;BME280;31404;53.974;-1.086;2023-06-14T19:35:42;102065.79;;;18.59;61.67
33265;BME280;31404;53.974;-1.086;2023-06-14T19:40:41;102071.35;;;17.29;65.72
33265;BME280;31404;53.974;-1.086;2023-06-14T19:45:42;102078.81;;;16.51;68.81
33265;BME280;31404;53.974;-1.086;2023-06-14T19:50:42;102085.19;;;16.24;70.94
33265;BME280;31404;53.974;-1.086;2023-06-14T19:55:42;102086.07;;;16.44;70.85
33265;BME280;31404;53.974;-1.086;2023-06-14T20:00:41;102078.47;;;18.58;64.77
33265;BME280;31404;53.974;-1.086;2023-06-14T20:05:42;102079.31;;;17.20;67.78
33265;BME280;31404;53.974;-1.086;2023-06-14T20:10:42;102089.75;;;15.70;73.75
33265;BME280;31404;53.974;-1.086;2023-06-14T20:15:42;102087.79;;;18.20;66.98
33265;BME280;31404;53.974;-1.086;2023-06-14T20:20:42;102091.89;;;18.94;64.50
33265;BME280;31404;53.974;-1.086;2023-06-14T20:25:46;102093.84;;;17.89;66.67
33265;BME280;31404;53.974;-1.086;2023-06-14T20:30:42;102098.04;;;18.89;64.57
33265;BME280;31404;53.974;-1.086;2023-06-14T20:35:42;102101.75;;;17.49;68.77
33265;BME280;31404;53.974;-1.086;2023-06-14T20:40:39;102105.16;;;17.49;70.35
33265;BME280;31404;53.974;-1.086;2023-06-14T20:45:44;102111.89;;;18.93;65.36
33265;BME280;31404;53.974;-1.086;2023-06-14T20:50:44;102125.02;;;16.70;72.67
33265;BME280;31404;53.974;-1.086;2023-06-14T20:55:41;102126.45;;;17.47;70.17
33265;BME280;31404;53.974;-1.086;2023-06-14T21:00:41;102128.73;;;17.80;69.60
33265;BME280;31404;53.974;-1.086;2023-06-14T21:05:42;102134.89;;;16.58;73.11
33265;BME280;31404;53.974;-1.086;2023-06-14T21:10:41;102133.88;;;17.89;69.80
33265;BME280;31404;53.974;-1.086;2023-06-14T21:15:42;102142.92;;;17.68;70.21
33265;BME280;31404;53.974;-1.086;2023-06-14T21:20:42;102149.59;;;16.90;73.62
33265;BME280;31404;53.974;-1.086;2023-06-14T21:25:43;102155.17;;;16.29;74.59
33265;BME280;31404;53.974;-1.086;2023-06-14T21:30:42;102154.96;;;15.64;77.60
33265;BME280;31404;53.974;-1.086;2023-06-14T21:35:43;102153.95;;;15.75;77.96
33265;BME280;31404;53.974;-1.086;2023-06-14T21:40:42;102155.29;;;15.63;79.49
33265;BME280;31404;53.974;-1.086;2023-06-14T21:45:41;102158.72;;;14.54;85.69
33265;BME280;31404;53.974;-1.086;2023-06-14T21:50:42;102156.92;;;16.00;78.86
33265;BME280;31404;53.974;-1.086;2023-06-14T21:55:42;102156.81;;;15.47;80.68
33265;BME280;31404;53.974;-1.086;2023-06-14T22:00:42;102159.58;;;16.25;78.95
33265;BME280;31404;53.974;-1.086;2023-06-14T22:05:43;102158.75;;;15.96;81.60
33265;BME280;31404;53.974;-1.086;2023-06-14T22:10:42;102158.15;;;15.66;79.79
33265;BME280;31404;53.974;-1.086;2023-06-14T22:15:42;102158.48;;;16.43;78.53
33265;BME280;31404;53.974;-1.086;2023-06-14T22:20:43;102159.28;;;17.04;77.52
33265;BME280;31404;53.974;-1.086;2023-06-14T22:25:41;102165.08;;;14.95;84.31
33265;BME280;31404;53.974;-1.086;2023-06-14T22:30:42;102165.52;;;14.79;90.27
33265;BME280;31404;53.974;-1.086;2023-06-14T22:35:41;102167.83;;;14.63;90.62
33265;BME280;31404;53.974;-1.086;2023-06-14T22:40:42;102169.29;;;14.99;89.00
33265;BME280;31404;53.974;-1.086;2023-06-14T22:45:43;102163.43;;;16.15;83.80
33265;BME280;31404;53.974;-1.086;2023-06-14T22:50:41;102163.75;;;14.76;88.71
33265;BME280;31404;53.974;-1.086;2023-06-14T22:55:42;102167.36;;;13.84;94.80
33265;BME280;31404;53.974;-1.086;2023-06-14T23:00:42;102168.02;;;16.38;81.53
33265;BME280;31404;53.974;-1.086;2023-06-14T23:05:43;102172.17;;;16.60;79.26
33265;BME280;31404;53.974;-1.086;2023-06-14T23:10:42;102176.91;;;16.99;78.54
33265;BME280;31404;53.974;-1.086;2023-06-14T23:15:42;102169.83;;;17.77;74.18
33265;BME280;31404;53.974;-1.086;2023-06-14T23:20:41;102162.02;;;17.85;73.82
33265;BME280;31404;53.974;-1.086;2023-06-14T23:25:41;102163.77;;;17.88;74.03
33265;BME280;31404;53.974;-1.086;2023-06-14T23:30:42;102166.83;;;18.01;73.20
33265;BME280;31404;53.974;-1.086;2023-06-14T23:35:41;102165.32;;;18.27;72.53
33265;BME280;31404;53.974;-1.086;2023-06-14T23:40:41;102171.65;;;17.61;73.59
33265;BME280;31404;53.974;-1.086;2023-06-14T23:45:42;102169.93;;;17.27;76.03
33265;BME280;31404;53.974;-1.086;2023-06-14T23:50:42;102168.84;;;17.23;76.93
33265;BME280;31404;53.974;-1.086;2023-06-14T23:55:42;102171.88;;;17.72;75.27
